createdAt,value
2019-01-13T00:00:32.015Z,6.60
2019-01-13T00:03:00.438Z,6.60
2019-01-13T00:05:28.852Z,6.60
2019-01-13T00:07:57.267Z,6.60
2019-01-13T00:10:26.749Z,6.60
2019-01-13T00:12:55.156Z,6.60
2019-01-13T00:15:24.742Z,6.60
2019-01-13T00:17:53.144Z,6.60
2019-01-13T00:20:21.542Z,6.70
2019-01-13T00:22:49.964Z,6.60
2019-01-13T00:25:18.397Z,6.60
2019-01-13T00:27:46.772Z,6.60
2019-01-13T00:30:19.788Z,6.60
2019-01-13T00:32:49.295Z,6.60
2019-01-13T00:35:17.740Z,6.60
2019-01-13T00:37:46.226Z,6.60
2019-01-13T00:40:17.642Z,6.60
2019-01-13T00:42:47.591Z,6.60
2019-01-13T00:45:16.510Z,6.60
2019-01-13T00:47:45.114Z,7.20
2019-01-13T00:50:14.743Z,7.80
2019-01-13T00:52:43.386Z,7.60
2019-01-13T00:55:13.632Z,7.00
2019-01-13T00:57:47.432Z,6.70
2019-01-13T01:00:26.175Z,6.60
2019-01-13T01:02:49.516Z,6.60
2019-01-13T01:05:18.212Z,6.50
2019-01-13T01:08:06.131Z,6.50
2019-01-13T01:10:34.712Z,6.60
2019-01-13T01:13:03.177Z,6.60
2019-01-13T01:15:31.579Z,6.50
2019-01-13T01:17:59.977Z,6.50
2019-01-13T01:20:28.389Z,6.50
2019-01-13T01:22:56.793Z,6.40
2019-01-13T01:25:25.196Z,6.40
2019-01-13T01:27:53.600Z,6.50
2019-01-13T01:30:22.015Z,6.50
2019-01-13T01:32:50.429Z,6.50
2019-01-13T01:35:18.836Z,6.50
2019-01-13T01:37:47.412Z,6.50
2019-01-13T01:40:20.652Z,6.50
2019-01-13T01:42:49.329Z,6.60
2019-01-13T01:45:19.350Z,6.50
2019-01-13T01:47:48.287Z,6.50
2019-01-13T01:50:17.245Z,6.50
2019-01-13T01:52:45.710Z,6.50
2019-01-13T01:55:16.452Z,6.50
2019-01-13T01:57:45.206Z,6.50
2019-01-13T02:00:16.648Z,6.60
2019-01-13T02:02:45.621Z,6.60
2019-01-13T02:05:14.073Z,6.60
2019-01-13T02:07:42.477Z,6.60
2019-01-13T02:10:14.120Z,6.40
2019-01-13T02:12:42.533Z,6.50
2019-01-13T02:15:16.709Z,6.40
2019-01-13T02:17:45.492Z,6.40
2019-01-13T02:20:17.133Z,6.40
2019-01-13T02:22:45.917Z,6.40
2019-01-13T02:25:17.742Z,6.40
2019-01-13T02:27:46.159Z,6.50
2019-01-13T02:30:17.652Z,6.60
2019-01-13T02:32:46.521Z,6.50
2019-01-13T02:35:14.945Z,6.50
2019-01-13T02:37:43.426Z,6.60
2019-01-13T02:40:17.392Z,6.60
2019-01-13T02:42:46.049Z,6.60
2019-01-13T02:45:17.483Z,6.60
2019-01-13T02:47:47.334Z,6.60
2019-01-13T02:50:15.904Z,6.60
2019-01-13T02:52:44.313Z,6.60
2019-01-13T02:55:12.985Z,6.60
2019-01-13T02:57:41.585Z,6.70
2019-01-13T03:00:16.084Z,6.70
2019-01-13T03:02:44.808Z,6.60
2019-01-13T03:05:14.442Z,6.60
2019-01-13T03:07:42.863Z,6.60
2019-01-13T03:10:14.496Z,6.50
2019-01-13T03:12:42.996Z,6.40
2019-01-13T03:15:19.537Z,6.40
2019-01-13T03:17:44.574Z,6.40
2019-01-13T03:20:13.809Z,6.40
2019-01-13T03:22:42.229Z,6.40
2019-01-13T03:25:13.335Z,6.40
2019-01-13T03:27:41.833Z,6.40
2019-01-13T03:30:13.597Z,6.40
2019-01-13T03:32:42.011Z,6.50
2019-01-13T03:35:10.678Z,6.50
2019-01-13T03:37:39.096Z,6.40
2019-01-13T03:40:16.216Z,6.40
2019-01-13T03:42:44.896Z,6.40
2019-01-13T03:45:13.938Z,6.40
2019-01-13T03:47:42.511Z,6.50
2019-01-13T03:50:14.052Z,6.50
2019-01-13T03:52:42.461Z,6.50
2019-01-13T03:55:11.696Z,6.50
2019-01-13T03:57:40.112Z,6.50
2019-01-13T04:00:11.874Z,6.50
2019-01-13T04:02:40.288Z,6.60
2019-01-13T04:05:09.229Z,6.60
2019-01-13T04:07:37.645Z,6.60
2019-01-13T04:10:09.389Z,6.60
2019-01-13T04:12:37.882Z,6.50
2019-01-13T04:15:09.359Z,6.50
2019-01-13T04:17:38.232Z,6.40
2019-01-13T04:20:07.299Z,6.40
2019-01-13T04:22:35.700Z,6.50
2019-01-13T04:25:05.155Z,6.60
2019-01-13T04:27:33.598Z,6.50
2019-01-13T04:30:02.088Z,6.50
2019-01-13T04:32:30.484Z,6.50
2019-01-13T04:34:58.893Z,6.60
2019-01-13T04:37:27.300Z,6.70
2019-01-13T04:39:55.736Z,6.50
2019-01-13T04:42:24.136Z,6.50
2019-01-13T04:44:52.609Z,6.50
2019-01-13T04:47:21.024Z,6.50
2019-01-13T04:49:49.457Z,6.50
2019-01-13T04:52:17.846Z,6.50
2019-01-13T04:54:46.245Z,6.50
2019-01-13T04:57:14.792Z,6.50
2019-01-13T04:59:43.221Z,6.50
2019-01-13T05:02:11.620Z,6.50
2019-01-13T05:04:40.037Z,6.50
2019-01-13T05:07:08.434Z,6.50
2019-01-13T05:09:36.845Z,6.40
2019-01-13T05:12:05.248Z,6.40
2019-01-13T05:14:33.710Z,6.50
2019-01-13T05:17:02.105Z,6.40
2019-01-13T05:19:30.520Z,6.40
2019-01-13T05:21:58.928Z,6.40
2019-01-13T05:24:27.365Z,6.40
2019-01-13T05:26:55.765Z,6.40
2019-01-13T05:29:24.167Z,6.40
2019-01-13T05:31:52.568Z,6.40
2019-01-13T05:34:20.962Z,6.40
2019-01-13T05:36:49.537Z,6.50
2019-01-13T05:39:17.932Z,6.50
2019-01-13T05:41:46.346Z,6.40
2019-01-13T05:44:14.740Z,6.40
2019-01-13T05:46:43.148Z,6.50
2019-01-13T05:49:11.733Z,6.50
2019-01-13T05:51:40.145Z,6.50
2019-01-13T05:54:08.542Z,6.50
2019-01-13T05:56:36.949Z,6.50
2019-01-13T05:59:05.356Z,6.50
2019-01-13T06:01:34.107Z,6.50
2019-01-13T06:04:02.762Z,6.60
2019-01-13T06:06:31.176Z,6.70
2019-01-13T06:08:59.576Z,6.60
2019-01-13T06:11:28.052Z,6.70
2019-01-13T06:13:56.464Z,6.70
2019-01-13T06:16:24.877Z,6.70
2019-01-13T06:18:53.284Z,6.70
2019-01-13T06:21:21.682Z,6.80
2019-01-13T06:23:50.093Z,6.80
2019-01-13T06:26:18.491Z,6.80
2019-01-13T06:28:46.900Z,6.80
2019-01-13T06:31:15.364Z,6.70
2019-01-13T06:33:43.783Z,6.70
2019-01-13T06:36:12.185Z,6.70
2019-01-13T06:38:40.589Z,6.70
2019-01-13T06:41:08.996Z,6.70
2019-01-13T06:43:37.404Z,6.70
2019-01-13T06:46:05.952Z,6.70
2019-01-13T06:48:35.496Z,6.80
2019-01-13T06:51:04.180Z,6.70
2019-01-13T06:53:32.598Z,6.70
2019-01-13T06:56:00.999Z,6.70
2019-01-13T06:58:29.414Z,6.70
2019-01-13T07:00:57.812Z,6.70
2019-01-13T07:03:26.223Z,6.70
2019-01-13T07:05:54.752Z,6.80
2019-01-13T07:08:23.160Z,6.80
2019-01-13T07:10:51.573Z,6.80
2019-01-13T07:13:19.971Z,6.80
2019-01-13T07:15:48.368Z,6.80
2019-01-13T07:18:16.800Z,6.80
2019-01-13T07:20:45.208Z,6.90
2019-01-13T07:23:14.099Z,6.80
2019-01-13T07:25:42.492Z,6.80
2019-01-13T07:28:10.883Z,6.80
2019-01-13T07:30:42.344Z,6.80
2019-01-13T07:33:10.740Z,6.90
2019-01-13T07:35:39.143Z,6.90
2019-01-13T07:38:07.555Z,6.90
2019-01-13T07:40:35.957Z,6.90
2019-01-13T07:43:04.348Z,6.90
2019-01-13T07:45:32.752Z,6.90
2019-01-13T07:48:01.243Z,6.90
2019-01-13T07:50:29.646Z,7.00
2019-01-13T07:52:58.044Z,7.00
2019-01-13T07:55:26.451Z,7.00
2019-01-13T07:57:55.996Z,7.00
2019-01-13T08:00:27.257Z,7.00
2019-01-13T08:02:55.661Z,6.90
2019-01-13T08:05:24.067Z,7.00
2019-01-13T08:07:52.467Z,7.00
2019-01-13T08:10:20.884Z,7.10
2019-01-13T08:12:49.277Z,7.00
2019-01-13T08:15:20.023Z,6.90
2019-01-13T08:17:48.668Z,6.90
2019-01-13T08:20:25.668Z,7.00
2019-01-13T08:22:54.063Z,7.00
2019-01-13T08:25:23.108Z,7.20
2019-01-13T08:27:51.504Z,9.10
2019-01-13T08:30:21.031Z,9.20
2019-01-13T08:32:49.978Z,8.90
2019-01-13T08:35:18.388Z,9.70
2019-01-13T08:37:46.860Z,9.80
2019-01-13T08:40:17.693Z,9.90
2019-01-13T08:42:46.103Z,10.00
2019-01-13T08:45:14.849Z,10.00
2019-01-13T08:47:43.253Z,9.90
2019-01-13T08:50:14.816Z,9.50
2019-01-13T08:52:43.222Z,9.40
2019-01-13T08:55:11.884Z,9.80
2019-01-13T08:57:40.838Z,8.60
2019-01-13T09:00:26.946Z,8.00
2019-01-13T09:02:55.353Z,7.70
2019-01-13T09:05:24.687Z,7.60
2019-01-13T09:07:53.093Z,7.40
2019-01-13T09:10:23.507Z,7.40
2019-01-13T09:12:56.645Z,7.40
2019-01-13T09:15:26.082Z,7.40
2019-01-13T09:17:54.909Z,7.40
2019-01-13T09:20:26.963Z,7.40
2019-01-13T09:22:57.236Z,7.40
2019-01-13T09:25:26.207Z,7.40
2019-01-13T09:27:54.613Z,7.40
2019-01-13T09:30:27.900Z,7.40
2019-01-13T09:32:56.336Z,7.40
2019-01-13T09:35:25.574Z,7.40
2019-01-13T09:37:54.526Z,7.50
2019-01-13T09:40:25.360Z,7.50
2019-01-13T09:42:54.405Z,7.60
2019-01-13T09:45:23.442Z,7.60
2019-01-13T09:47:52.029Z,7.60
2019-01-13T09:50:23.957Z,7.70
2019-01-13T09:52:53.279Z,7.70
2019-01-13T09:55:24.536Z,7.70
2019-01-13T09:57:53.336Z,7.70
2019-01-13T10:00:27.670Z,7.70
2019-01-13T10:02:56.105Z,7.80
2019-01-13T10:05:24.535Z,7.80
2019-01-13T10:07:54.496Z,7.80
2019-01-13T10:10:22.898Z,7.80
2019-01-13T10:12:54.360Z,7.80
2019-01-13T10:15:25.105Z,7.90
2019-01-13T10:17:53.884Z,7.80
2019-01-13T10:20:22.280Z,7.90
2019-01-13T10:22:50.681Z,7.90
2019-01-13T10:25:19.249Z,7.80
2019-01-13T10:27:47.692Z,7.90
2019-01-13T10:30:27.356Z,7.90
2019-01-13T10:32:55.833Z,7.90
2019-01-13T10:35:24.396Z,8.00
2019-01-13T10:37:53.261Z,8.00
2019-01-13T10:40:24.210Z,8.00
2019-01-13T10:42:53.516Z,8.10
2019-01-13T10:45:21.931Z,8.10
2019-01-13T10:47:50.601Z,8.10
2019-01-13T10:50:22.348Z,8.10
2019-01-13T10:52:51.025Z,8.10
2019-01-13T10:55:19.559Z,8.80
2019-01-13T10:57:47.945Z,8.80
2019-01-13T11:00:22.036Z,8.40
2019-01-13T11:02:50.427Z,8.30
2019-01-13T11:05:18.833Z,8.30
2019-01-13T11:07:47.771Z,8.30
2019-01-13T11:10:18.884Z,8.30
2019-01-13T11:12:47.276Z,8.20
2019-01-13T11:15:21.768Z,8.20
2019-01-13T11:17:49.263Z,8.20
2019-01-13T11:20:26.068Z,8.20
2019-01-13T11:22:54.720Z,8.20
2019-01-13T11:25:23.224Z,8.20
2019-01-13T11:27:51.620Z,8.20
2019-01-13T11:30:23.452Z,8.20
2019-01-13T11:32:51.844Z,8.20
2019-01-13T11:35:20.258Z,8.20
2019-01-13T11:37:49.193Z,8.20
2019-01-13T11:40:23.504Z,8.20
2019-01-13T11:42:51.902Z,8.20
2019-01-13T11:45:20.471Z,8.20
2019-01-13T11:47:49.241Z,8.20
2019-01-13T11:50:25.528Z,8.20
2019-01-13T11:52:53.936Z,8.20
2019-01-13T11:55:22.340Z,8.30
2019-01-13T11:57:50.741Z,8.30
2019-01-13T12:00:25.180Z,8.20
2019-01-13T12:02:53.580Z,8.20
2019-01-13T12:05:21.988Z,8.20
2019-01-13T12:07:50.384Z,8.20
2019-01-13T12:10:20.851Z,8.20
2019-01-13T12:12:49.787Z,7.90
2019-01-13T12:15:20.698Z,8.30
2019-01-13T12:17:49.105Z,8.30
2019-01-13T12:20:19.867Z,8.30
2019-01-13T12:22:48.904Z,8.20
2019-01-13T12:25:19.395Z,8.20
2019-01-13T12:27:47.805Z,8.20
2019-01-13T12:30:22.359Z,8.20
2019-01-13T12:32:50.766Z,8.30
2019-01-13T12:35:19.182Z,8.20
2019-01-13T12:37:47.588Z,8.20
2019-01-13T12:40:18.252Z,8.20
2019-01-13T12:42:47.581Z,8.20
2019-01-13T12:45:18.830Z,8.20
2019-01-13T12:47:47.396Z,8.20
2019-01-13T12:50:35.144Z,8.20
2019-01-13T12:53:04.089Z,8.20
2019-01-13T12:55:32.590Z,8.20
2019-01-13T12:58:00.992Z,8.20
2019-01-13T13:00:29.404Z,8.20
2019-01-13T13:02:57.817Z,8.20
2019-01-13T13:05:26.204Z,8.20
2019-01-13T13:07:54.632Z,8.20
2019-01-13T13:10:32.339Z,8.20
2019-01-13T13:13:00.753Z,8.20
2019-01-13T13:15:29.153Z,8.20
2019-01-13T13:17:57.575Z,8.20
2019-01-13T13:20:25.978Z,8.20
2019-01-13T13:22:55.127Z,8.20
2019-01-13T13:25:23.520Z,8.20
2019-01-13T13:27:52.196Z,8.30
2019-01-13T13:30:28.359Z,8.30
2019-01-13T13:32:57.406Z,8.30
2019-01-13T13:35:25.902Z,8.40
2019-01-13T13:37:54.381Z,8.40
2019-01-13T13:40:42.124Z,8.40
2019-01-13T13:43:10.549Z,8.40
2019-01-13T13:45:38.946Z,8.40
2019-01-13T13:48:07.449Z,8.40
2019-01-13T13:50:35.845Z,8.40
2019-01-13T13:53:05.105Z,8.40
2019-01-13T13:55:33.487Z,8.40
2019-01-13T13:58:01.909Z,8.30
2019-01-13T14:00:32.824Z,8.40
2019-01-13T14:03:01.260Z,8.30
2019-01-13T14:05:29.675Z,8.40
2019-01-13T14:07:58.085Z,8.40
2019-01-13T14:10:37.653Z,8.40
2019-01-13T14:13:06.139Z,8.40
2019-01-13T14:15:34.720Z,8.40
2019-01-13T14:18:03.253Z,8.40
2019-01-13T14:20:31.650Z,8.30
2019-01-13T14:23:00.099Z,8.30
2019-01-13T14:25:28.505Z,8.30
2019-01-13T14:27:56.908Z,8.30
2019-01-13T14:30:27.659Z,8.20
2019-01-13T14:32:56.997Z,8.20
2019-01-13T14:35:25.419Z,8.10
2019-01-13T14:37:54.102Z,8.10
2019-01-13T14:40:24.263Z,8.10
2019-01-13T14:42:52.713Z,8.10
2019-01-13T14:45:25.348Z,8.10
2019-01-13T14:47:54.122Z,8.10
2019-01-13T14:50:25.832Z,8.10
2019-01-13T14:52:54.773Z,8.10
2019-01-13T14:55:23.200Z,8.00
2019-01-13T14:57:51.614Z,8.00
2019-01-13T15:00:29.590Z,7.90
2019-01-13T15:02:58.158Z,7.90
2019-01-13T15:05:26.720Z,7.80
2019-01-13T15:07:55.139Z,7.80
2019-01-13T15:10:25.104Z,7.80
2019-01-13T15:12:54.340Z,7.80
2019-01-13T15:15:23.385Z,7.80
2019-01-13T15:17:51.790Z,7.70
2019-01-13T15:20:25.062Z,7.70
2019-01-13T15:22:53.469Z,7.70
2019-01-13T15:25:27.375Z,7.70
2019-01-13T15:27:56.994Z,7.70
2019-01-13T15:30:33.609Z,7.70
2019-01-13T15:33:02.000Z,7.70
2019-01-13T15:35:30.408Z,7.70
2019-01-13T15:37:58.825Z,7.70
2019-01-13T15:40:27.219Z,7.70
2019-01-13T15:42:55.627Z,7.70
2019-01-13T15:45:24.028Z,7.60
2019-01-13T15:47:52.436Z,7.70
2019-01-13T15:50:23.376Z,7.70
2019-01-13T15:52:51.795Z,7.70
2019-01-13T15:55:20.990Z,7.60
2019-01-13T15:57:49.815Z,7.70
2019-01-13T16:00:26.748Z,7.60
2019-01-13T16:02:55.161Z,7.60
2019-01-13T16:05:24.115Z,7.50
2019-01-13T16:07:52.520Z,7.50
2019-01-13T16:10:23.363Z,7.50
2019-01-13T16:12:51.871Z,7.50
2019-01-13T16:15:20.354Z,7.50
2019-01-13T16:17:48.761Z,7.50
2019-01-13T16:20:31.873Z,7.40
2019-01-13T16:23:00.277Z,7.40
2019-01-13T16:25:28.672Z,7.40
2019-01-13T16:27:57.095Z,7.40
2019-01-13T16:30:28.201Z,7.40
2019-01-13T16:32:56.620Z,7.40
2019-01-13T16:35:25.048Z,7.30
2019-01-13T16:37:53.617Z,7.40
2019-01-13T16:40:23.574Z,7.40
2019-01-13T16:42:51.976Z,7.30
2019-01-13T16:45:20.393Z,7.30
2019-01-13T16:47:49.430Z,7.30
2019-01-13T16:50:23.112Z,7.30
2019-01-13T16:52:53.444Z,7.30
2019-01-13T16:55:23.020Z,7.30
2019-01-13T16:57:51.803Z,7.20
2019-01-13T17:00:22.545Z,7.20
2019-01-13T17:02:51.008Z,7.20
2019-01-13T17:05:20.857Z,7.40
2019-01-13T17:07:50.761Z,7.40
2019-01-13T17:10:23.723Z,7.40
2019-01-13T17:12:52.203Z,7.40
2019-01-13T17:15:23.593Z,7.50
2019-01-13T17:17:52.000Z,7.50
2019-01-13T17:20:22.522Z,7.50
2019-01-13T17:22:50.940Z,7.50
2019-01-13T17:25:21.774Z,7.50
2019-01-13T17:27:50.712Z,7.50
2019-01-13T17:30:32.558Z,7.60
2019-01-13T17:33:01.196Z,7.50
2019-01-13T17:35:29.604Z,7.50
2019-01-13T17:37:58.016Z,7.50
2019-01-13T17:40:26.684Z,7.50
2019-01-13T17:42:56.052Z,7.50
2019-01-13T17:45:27.164Z,7.50
2019-01-13T17:47:55.560Z,7.50
2019-01-13T17:50:25.412Z,7.50
2019-01-13T17:52:53.816Z,7.60
2019-01-13T17:55:24.357Z,7.60
2019-01-13T17:57:53.307Z,7.60
2019-01-13T18:00:24.772Z,7.60
2019-01-13T18:02:53.191Z,7.60
2019-01-13T18:05:21.589Z,7.60
2019-01-13T18:07:50.005Z,7.60
2019-01-13T18:10:18.402Z,7.60
2019-01-13T18:12:46.816Z,7.50
2019-01-13T18:15:15.388Z,7.50
2019-01-13T18:17:43.798Z,7.50
2019-01-13T18:20:15.210Z,7.50
2019-01-13T18:22:43.627Z,7.50
2019-01-13T18:25:14.460Z,7.50
2019-01-13T18:27:42.882Z,7.40
2019-01-13T18:30:23.203Z,7.40
2019-01-13T18:32:52.045Z,7.40
2019-01-13T18:35:22.328Z,7.30
2019-01-13T18:37:50.746Z,7.30
2019-01-13T18:40:21.280Z,7.30
2019-01-13T18:42:50.062Z,7.20
2019-01-13T18:45:19.992Z,7.20
2019-01-13T18:47:48.404Z,7.20
2019-01-13T18:50:21.534Z,7.20
2019-01-13T18:52:53.285Z,7.20
2019-01-13T18:55:21.972Z,7.20
2019-01-13T18:57:52.123Z,7.20
2019-01-13T19:00:25.437Z,7.30
2019-01-13T19:02:54.364Z,7.20
2019-01-13T19:05:25.312Z,7.20
2019-01-13T19:07:53.724Z,7.20
2019-01-13T19:10:50.873Z,7.20
2019-01-13T19:13:25.113Z,7.20
2019-01-13T19:15:56.626Z,7.20
2019-01-13T19:18:25.041Z,7.20
2019-01-13T19:20:53.437Z,7.20
2019-01-13T19:23:23.279Z,7.20
2019-01-13T19:25:51.680Z,7.30
2019-01-13T19:28:20.091Z,7.30
2019-01-13T19:30:48.511Z,7.20
2019-01-13T19:33:16.920Z,7.20
2019-01-13T19:35:45.325Z,7.20
2019-01-13T19:38:13.732Z,7.20
2019-01-13T19:40:42.131Z,7.10
2019-01-13T19:43:10.543Z,7.10
2019-01-13T19:45:38.944Z,7.10
2019-01-13T19:48:07.388Z,7.10
2019-01-13T19:50:35.798Z,7.20
2019-01-13T19:53:04.464Z,7.10
2019-01-13T19:55:32.885Z,7.20
2019-01-13T19:58:01.271Z,7.20
2019-01-13T20:00:34.525Z,7.20
2019-01-13T20:03:03.157Z,7.20
2019-01-13T20:05:31.564Z,7.10
2019-01-13T20:07:59.973Z,7.20
2019-01-13T20:10:28.384Z,7.20
2019-01-13T20:12:56.788Z,7.20
2019-01-13T20:15:25.209Z,7.20
2019-01-13T20:17:53.611Z,7.10
2019-01-13T20:20:22.186Z,7.00
2019-01-13T20:22:50.585Z,7.00
2019-01-13T20:25:19.575Z,7.00
2019-01-13T20:27:47.968Z,7.00
2019-01-13T20:30:23.132Z,7.10
2019-01-13T20:32:51.546Z,7.00
2019-01-13T20:35:20.074Z,7.00
2019-01-13T20:37:48.479Z,6.90
2019-01-13T20:40:20.207Z,6.90
2019-01-13T20:42:48.973Z,6.80
2019-01-13T20:45:26.112Z,6.70
2019-01-13T20:47:54.528Z,6.70
2019-01-13T20:50:22.939Z,6.70
2019-01-13T20:52:51.338Z,6.70
2019-01-13T20:55:19.749Z,6.70
2019-01-13T20:57:48.149Z,6.70
2019-01-13T21:00:24.727Z,6.60
2019-01-13T21:02:53.500Z,6.50
2019-01-13T21:05:26.524Z,6.50
2019-01-13T21:07:52.980Z,6.50
2019-01-13T21:10:22.240Z,6.50
2019-01-13T21:12:51.913Z,6.50
2019-01-13T21:15:23.397Z,6.40
2019-01-13T21:17:57.428Z,6.40
2019-01-13T21:20:22.012Z,6.30
2019-01-13T21:22:50.778Z,6.30
2019-01-13T21:25:19.175Z,6.30
2019-01-13T21:27:47.724Z,6.30
2019-01-13T21:30:19.128Z,6.30
2019-01-13T21:32:47.535Z,6.30
2019-01-13T21:35:16.008Z,6.30
2019-01-13T21:37:44.417Z,6.20
2019-01-13T21:40:15.363Z,6.20
2019-01-13T21:42:43.838Z,6.20
2019-01-13T21:45:18.213Z,6.20
2019-01-13T21:47:47.700Z,6.20
2019-01-13T21:50:18.664Z,6.20
2019-01-13T21:52:47.507Z,6.30
2019-01-13T21:55:17.941Z,6.20
2019-01-13T21:57:46.887Z,6.10
2019-01-13T22:00:18.669Z,6.10
2019-01-13T22:02:47.125Z,6.10
2019-01-13T22:05:15.736Z,6.10
2019-01-13T22:07:44.160Z,6.00
2019-01-13T22:10:15.284Z,6.00
2019-01-13T22:12:43.699Z,6.00
2019-01-13T22:15:15.389Z,6.00
2019-01-13T22:17:44.069Z,5.90
2019-01-13T22:20:15.220Z,5.90
2019-01-13T22:22:45.489Z,5.80
2019-01-13T22:25:14.720Z,5.80
2019-01-13T22:27:43.435Z,5.70
2019-01-13T22:30:17.350Z,5.70
2019-01-13T22:32:45.759Z,5.70
2019-01-13T22:35:14.426Z,5.70
2019-01-13T22:37:43.216Z,5.70
2019-01-13T22:40:14.297Z,5.60
2019-01-13T22:42:42.697Z,5.60
2019-01-13T22:45:16.495Z,5.60
2019-01-13T22:47:44.893Z,6.30
2019-01-13T22:50:14.924Z,6.70
2019-01-13T22:52:43.390Z,7.30
2019-01-13T22:55:12.141Z,6.90
2019-01-13T22:57:40.541Z,6.70
2019-01-13T23:00:44.844Z,6.70
2019-01-13T23:03:13.240Z,6.60
2019-01-13T23:05:46.085Z,7.10
2019-01-13T23:08:14.480Z,6.30
2019-01-13T23:10:43.016Z,5.80
2019-01-13T23:13:11.408Z,5.60
2019-01-13T23:15:39.854Z,5.50
2019-01-13T23:18:08.252Z,5.40
2019-01-13T23:20:36.734Z,5.40
2019-01-13T23:23:05.509Z,5.40
2019-01-13T23:25:33.938Z,5.30
2019-01-13T23:28:02.341Z,5.30
2019-01-13T23:30:30.749Z,5.20
2019-01-13T23:32:59.148Z,5.20
2019-01-13T23:35:27.562Z,5.20
2019-01-13T23:37:55.976Z,5.20
2019-01-13T23:40:24.376Z,5.20
2019-01-13T23:42:52.850Z,5.10
2019-01-13T23:45:21.256Z,5.10
2019-01-13T23:47:49.661Z,5.10
2019-01-13T23:50:18.065Z,5.10
2019-01-13T23:52:46.732Z,5.20
2019-01-13T23:55:15.492Z,5.00
2019-01-13T23:57:43.887Z,5.00
